sensor_id;sensor_type;location;lat;lon;timestamp;P1;durP1;ratioP1;P2;durP2;ratioP2
22786;SDS011;63134;52.020;4.714;2023-08-06T00:02:18;1.70;;;1.60;;
22786;SDS011;63134;52.020;4.714;2023-08-06T00:05:04;1.85;;;1.70;;
22786;SDS011;63134;52.020;4.714;2023-08-06T00:07:50;1.70;;;1.60;;
22786;SDS011;63134;52.020;4.714;2023-08-06T00:10:35;1.45;;;1.35;;
22786;SDS011;63134;52.020;4.714;2023-08-06T00:13:21;1.58;;;1.48;;
22786;SDS011;63134;52.020;4.714;2023-08-06T00:16:09;1.40;;;1.30;;
22786;SDS011;63134;52.020;4.714;2023-08-06T00:18:56;1.15;;;1.13;;
22786;SDS011;63134;52.020;4.714;2023-08-06T00:21:41;1.10;;;1.10;;
22786;SDS011;63134;52.020;4.714;2023-08-06T00:24:27;1.20;;;1.10;;
22786;SDS011;63134;52.020;4.714;2023-08-06T00:27:13;1.80;;;1.70;;
22786;SDS011;63134;52.020;4.714;2023-08-06T00:30:02;1.65;;;1.50;;
22786;SDS011;63134;52.020;4.714;2023-08-06T00:32:47;1.70;;;1.60;;
22786;SDS011;63134;52.020;4.714;2023-08-06T00:35:38;1.58;;;1.48;;
22786;SDS011;63134;52.020;4.714;2023-08-06T00:38:23;1.70;;;1.60;;
22786;SDS011;63134;52.020;4.714;2023-08-06T00:41:09;1.30;;;1.20;;
22786;SDS011;63134;52.020;4.714;2023-08-06T00:43:54;1.40;;;1.30;;
22786;SDS011;63134;52.020;4.714;2023-08-06T00:46:40;1.38;;;1.27;;
22786;SDS011;63134;52.020;4.714;2023-08-06T00:49:25;1.38;;;1.27;;
22786;SDS011;63134;52.020;4.714;2023-08-06T00:52:11;1.25;;;1.15;;
22786;SDS011;63134;52.020;4.714;2023-08-06T00:54:58;1.42;;;1.33;;
22786;SDS011;63134;52.020;4.714;2023-08-06T00:57:44;1.27;;;1.17;;
22786;SDS011;63134;52.020;4.714;2023-08-06T01:00:30;1.23;;;1.13;;
22786;SDS011;63134;52.020;4.714;2023-08-06T01:03:16;1.40;;;1.30;;
22786;SDS011;63134;52.020;4.714;2023-08-06T01:06:02;1.30;;;1.20;;
22786;SDS011;63134;52.020;4.714;2023-08-06T01:08:55;1.58;;;1.48;;
22786;SDS011;63134;52.020;4.714;2023-08-06T01:11:58;1.60;;;1.50;;
22786;SDS011;63134;52.020;4.714;2023-08-06T01:14:58;1.50;;;1.40;;
22786;SDS011;63134;52.020;4.714;2023-08-06T01:17:51;1.90;;;1.55;;
22786;SDS011;63134;52.020;4.714;2023-08-06T01:20:37;1.77;;;1.67;;
22786;SDS011;63134;52.020;4.714;2023-08-06T01:23:23;2.08;;;1.98;;
22786;SDS011;63134;52.020;4.714;2023-08-06T01:29:19;2.60;;;2.40;;
22786;SDS011;63134;52.020;4.714;2023-08-06T01:32:10;2.50;;;2.20;;
22786;SDS011;63134;52.020;4.714;2023-08-06T01:34:58;2.40;;;2.20;;
22786;SDS011;63134;52.020;4.714;2023-08-06T01:37:51;2.22;;;2.03;;
22786;SDS011;63134;52.020;4.714;2023-08-06T01:40:37;2.10;;;2.00;;
22786;SDS011;63134;52.020;4.714;2023-08-06T01:43:22;2.40;;;1.98;;
22786;SDS011;63134;52.020;4.714;2023-08-06T01:46:08;2.97;;;2.78;;
22786;SDS011;63134;52.020;4.714;2023-08-06T01:48:53;3.05;;;2.75;;
22786;SDS011;63134;52.020;4.714;2023-08-06T01:51:39;2.45;;;2.25;;
22786;SDS011;63134;52.020;4.714;2023-08-06T01:54:24;2.38;;;2.17;;
22786;SDS011;63134;52.020;4.714;2023-08-06T01:57:10;1.73;;;1.63;;
22786;SDS011;63134;52.020;4.714;2023-08-06T01:59:56;1.70;;;1.60;;
22786;SDS011;63134;52.020;4.714;2023-08-06T02:02:42;1.73;;;1.63;;
22786;SDS011;63134;52.020;4.714;2023-08-06T02:05:27;2.67;;;2.47;;
22786;SDS011;63134;52.020;4.714;2023-08-06T02:08:13;2.38;;;2.17;;
22786;SDS011;63134;52.020;4.714;2023-08-06T02:10:58;2.60;;;2.40;;
22786;SDS011;63134;52.020;4.714;2023-08-06T02:13:44;2.22;;;2.00;;
22786;SDS011;63134;52.020;4.714;2023-08-06T02:16:35;2.40;;;2.20;;
22786;SDS011;63134;52.020;4.714;2023-08-06T02:19:21;2.42;;;2.22;;
22786;SDS011;63134;52.020;4.714;2023-08-06T02:22:06;2.20;;;2.05;;
22786;SDS011;63134;52.020;4.714;2023-08-06T02:24:52;3.28;;;2.30;;
22786;SDS011;63134;52.020;4.714;2023-08-06T02:27:37;2.30;;;2.10;;
22786;SDS011;63134;52.020;4.714;2023-08-06T02:30:23;2.20;;;2.00;;
22786;SDS011;63134;52.020;4.714;2023-08-06T02:33:18;3.83;;;3.53;;
22786;SDS011;63134;52.020;4.714;2023-08-06T02:36:04;3.15;;;2.85;;
22786;SDS011;63134;52.020;4.714;2023-08-06T02:38:50;3.38;;;3.08;;
22786;SDS011;63134;52.020;4.714;2023-08-06T02:41:35;3.58;;;3.28;;
22786;SDS011;63134;52.020;4.714;2023-08-06T02:44:21;3.60;;;3.30;;
22786;SDS011;63134;52.020;4.714;2023-08-06T02:47:07;4.32;;;3.47;;
22786;SDS011;63134;52.020;4.714;2023-08-06T02:49:52;2.92;;;2.72;;
22786;SDS011;63134;52.020;4.714;2023-08-06T02:52:38;2.95;;;2.75;;
22786;SDS011;63134;52.020;4.714;2023-08-06T02:55:25;2.67;;;2.47;;
22786;SDS011;63134;52.020;4.714;2023-08-06T02:58:11;3.25;;;2.78;;
22786;SDS011;63134;52.020;4.714;2023-08-06T03:01:03;8.65;;;4.53;;
22786;SDS011;63134;52.020;4.714;2023-08-06T03:03:57;4.88;;;4.45;;
22786;SDS011;63134;52.020;4.714;2023-08-06T03:06:50;6.38;;;5.80;;
22786;SDS011;63134;52.020;4.714;2023-08-06T03:09:40;7.97;;;7.18;;
22786;SDS011;63134;52.020;4.714;2023-08-06T03:12:26;6.70;;;6.00;;
22786;SDS011;63134;52.020;4.714;2023-08-06T03:15:12;7.35;;;6.57;;
22786;SDS011;63134;52.020;4.714;2023-08-06T03:18:00;6.78;;;6.07;;
22786;SDS011;63134;52.020;4.714;2023-08-06T03:20:46;6.53;;;5.97;;
22786;SDS011;63134;52.020;4.714;2023-08-06T03:23:32;6.55;;;5.95;;
22786;SDS011;63134;52.020;4.714;2023-08-06T03:26:19;6.85;;;6.15;;
22786;SDS011;63134;52.020;4.714;2023-08-06T03:29:05;6.97;;;6.32;;
22786;SDS011;63134;52.020;4.714;2023-08-06T03:31:52;7.20;;;6.50;;
22786;SDS011;63134;52.020;4.714;2023-08-06T03:34:41;7.45;;;6.75;;
22786;SDS011;63134;52.020;4.714;2023-08-06T03:37:28;8.15;;;7.45;;
22786;SDS011;63134;52.020;4.714;2023-08-06T03:40:13;8.65;;;7.85;;
22786;SDS011;63134;52.020;4.714;2023-08-06T03:42:59;8.40;;;6.53;;
22786;SDS011;63134;52.020;4.714;2023-08-06T03:45:45;7.05;;;6.35;;
22786;SDS011;63134;52.020;4.714;2023-08-06T03:48:30;8.00;;;7.30;;
22786;SDS011;63134;52.020;4.714;2023-08-06T03:51:19;8.90;;;7.88;;
22786;SDS011;63134;52.020;4.714;2023-08-06T03:54:05;9.50;;;7.90;;
22786;SDS011;63134;52.020;4.714;2023-08-06T03:56:51;8.90;;;8.00;;
22786;SDS011;63134;52.020;4.714;2023-08-06T03:59:37;9.75;;;8.85;;
22786;SDS011;63134;52.020;4.714;2023-08-06T04:02:22;9.73;;;8.82;;
22786;SDS011;63134;52.020;4.714;2023-08-06T04:05:12;13.60;;;12.20;;
22786;SDS011;63134;52.020;4.714;2023-08-06T04:07:58;13.27;;;11.88;;
22786;SDS011;63134;52.020;4.714;2023-08-06T04:10:44;8.55;;;7.70;;
22786;SDS011;63134;52.020;4.714;2023-08-06T04:13:31;5.47;;;4.80;;
22786;SDS011;63134;52.020;4.714;2023-08-06T04:16:16;4.03;;;3.25;;
22786;SDS011;63134;52.020;4.714;2023-08-06T04:19:02;11.55;;;3.97;;
22786;SDS011;63134;52.020;4.714;2023-08-06T04:21:48;6.13;;;3.90;;
22786;SDS011;63134;52.020;4.714;2023-08-06T04:24:33;7.05;;;4.05;;
22786;SDS011;63134;52.020;4.714;2023-08-06T04:27:19;5.47;;;4.03;;
22786;SDS011;63134;52.020;4.714;2023-08-06T04:30:07;6.68;;;4.45;;
22786;SDS011;63134;52.020;4.714;2023-08-06T04:32:56;8.50;;;4.43;;
22786;SDS011;63134;52.020;4.714;2023-08-06T04:35:44;5.68;;;4.68;;
22786;SDS011;63134;52.020;4.714;2023-08-06T04:38:29;7.88;;;5.18;;
22786;SDS011;63134;52.020;4.714;2023-08-06T04:41:16;6.20;;;4.50;;
22786;SDS011;63134;52.020;4.714;2023-08-06T04:44:26;8.20;;;4.50;;
22786;SDS011;63134;52.020;4.714;2023-08-06T04:47:12;8.90;;;4.53;;
22786;SDS011;63134;52.020;4.714;2023-08-06T04:49:59;6.30;;;3.92;;
22786;SDS011;63134;52.020;4.714;2023-08-06T04:52:46;4.65;;;3.88;;
22786;SDS011;63134;52.020;4.714;2023-08-06T04:55:31;4.00;;;3.50;;
22786;SDS011;63134;52.020;4.714;2023-08-06T04:58:17;5.97;;;4.28;;
22786;SDS011;63134;52.020;4.714;2023-08-06T05:01:02;4.25;;;3.20;;
22786;SDS011;63134;52.020;4.714;2023-08-06T05:03:48;5.13;;;3.28;;
22786;SDS011;63134;52.020;4.714;2023-08-06T05:06:34;3.50;;;2.88;;
22786;SDS011;63134;52.020;4.714;2023-08-06T05:09:19;4.50;;;3.30;;
22786;SDS011;63134;52.020;4.714;2023-08-06T05:12:05;4.97;;;3.35;;
22786;SDS011;63134;52.020;4.714;2023-08-06T05:14:51;8.90;;;3.85;;
22786;SDS011;63134;52.020;4.714;2023-08-06T05:17:36;5.43;;;3.58;;
22786;SDS011;63134;52.020;4.714;2023-08-06T05:20:22;4.10;;;2.88;;
22786;SDS011;63134;52.020;4.714;2023-08-06T05:23:08;3.85;;;2.88;;
22786;SDS011;63134;52.020;4.714;2023-08-06T05:25:53;4.05;;;2.95;;
22786;SDS011;63134;52.020;4.714;2023-08-06T05:28:38;4.45;;;3.03;;
22786;SDS011;63134;52.020;4.714;2023-08-06T05:31:29;4.28;;;2.97;;
22786;SDS011;63134;52.020;4.714;2023-08-06T05:34:14;3.70;;;3.03;;
22786;SDS011;63134;52.020;4.714;2023-08-06T05:37:00;3.63;;;2.95;;
22786;SDS011;63134;52.020;4.714;2023-08-06T05:39:45;4.07;;;2.90;;
22786;SDS011;63134;52.020;4.714;2023-08-06T05:42:31;3.25;;;2.85;;
22786;SDS011;63134;52.020;4.714;2023-08-06T05:45:16;3.95;;;3.63;;
22786;SDS011;63134;52.020;4.714;2023-08-06T05:48:02;4.45;;;3.33;;
22786;SDS011;63134;52.020;4.714;2023-08-06T05:50:51;3.38;;;2.90;;
22786;SDS011;63134;52.020;4.714;2023-08-06T05:53:37;4.57;;;3.38;;
22786;SDS011;63134;52.020;4.714;2023-08-06T05:56:26;7.30;;;3.47;;
22786;SDS011;63134;52.020;4.714;2023-08-06T05:59:12;4.28;;;3.58;;
22786;SDS011;63134;52.020;4.714;2023-08-06T06:01:58;4.10;;;3.20;;
22786;SDS011;63134;52.020;4.714;2023-08-06T06:04:44;3.75;;;3.05;;
22786;SDS011;63134;52.020;4.714;2023-08-06T06:07:29;3.45;;;3.15;;
22786;SDS011;63134;52.020;4.714;2023-08-06T06:10:14;4.13;;;3.30;;
22786;SDS011;63134;52.020;4.714;2023-08-06T06:13:00;4.20;;;3.42;;
22786;SDS011;63134;52.020;4.714;2023-08-06T06:15:49;6.25;;;3.50;;
22786;SDS011;63134;52.020;4.714;2023-08-06T06:18:35;5.43;;;3.03;;
22786;SDS011;63134;52.020;4.714;2023-08-06T06:21:27;4.38;;;3.17;;
22786;SDS011;63134;52.020;4.714;2023-08-06T06:24:12;4.63;;;3.53;;
22786;SDS011;63134;52.020;4.714;2023-08-06T06:26:58;4.93;;;3.28;;
22786;SDS011;63134;52.020;4.714;2023-08-06T06:29:44;5.32;;;3.67;;
22786;SDS011;63134;52.020;4.714;2023-08-06T06:32:29;6.70;;;3.80;;
22786;SDS011;63134;52.020;4.714;2023-08-06T06:35:15;4.78;;;3.70;;
22786;SDS011;63134;52.020;4.714;2023-08-06T06:38:00;6.68;;;3.80;;
22786;SDS011;63134;52.020;4.714;2023-08-06T06:40:56;4.10;;;3.30;;
22786;SDS011;63134;52.020;4.714;2023-08-06T06:43:42;5.57;;;3.67;;
22786;SDS011;63134;52.020;4.714;2023-08-06T06:46:31;7.20;;;3.80;;
22786;SDS011;63134;52.020;4.714;2023-08-06T06:49:19;5.72;;;3.92;;
22786;SDS011;63134;52.020;4.714;2023-08-06T06:52:05;6.85;;;3.70;;
22786;SDS011;63134;52.020;4.714;2023-08-06T06:54:51;6.25;;;4.07;;
22786;SDS011;63134;52.020;4.714;2023-08-06T06:57:36;6.93;;;3.20;;
22786;SDS011;63134;52.020;4.714;2023-08-06T07:00:22;3.97;;;3.30;;
22786;SDS011;63134;52.020;4.714;2023-08-06T07:03:08;4.43;;;3.15;;
22786;SDS011;63134;52.020;4.714;2023-08-06T07:05:56;3.65;;;2.60;;
22786;SDS011;63134;52.020;4.714;2023-08-06T07:08:46;6.32;;;2.72;;
22786;SDS011;63134;52.020;4.714;2023-08-06T07:11:31;7.28;;;2.90;;
22786;SDS011;63134;52.020;4.714;2023-08-06T07:14:17;7.90;;;2.95;;
22786;SDS011;63134;52.020;4.714;2023-08-06T07:17:02;3.80;;;2.45;;
22786;SDS011;63134;52.020;4.714;2023-08-06T07:19:48;5.57;;;2.45;;
22786;SDS011;63134;52.020;4.714;2023-08-06T07:22:34;5.78;;;2.28;;
22786;SDS011;63134;52.020;4.714;2023-08-06T07:25:20;4.07;;;2.25;;
22786;SDS011;63134;52.020;4.714;2023-08-06T07:28:05;5.80;;;2.28;;
22786;SDS011;63134;52.020;4.714;2023-08-06T07:30:55;3.47;;;1.90;;
22786;SDS011;63134;52.020;4.714;2023-08-06T07:33:40;4.65;;;2.30;;
22786;SDS011;63134;52.020;4.714;2023-08-06T07:36:26;4.40;;;1.85;;
22786;SDS011;63134;52.020;4.714;2023-08-06T07:39:12;2.55;;;1.75;;
22786;SDS011;63134;52.020;4.714;2023-08-06T07:42:02;3.92;;;1.85;;
22786;SDS011;63134;52.020;4.714;2023-08-06T07:44:55;3.15;;;1.60;;
22786;SDS011;63134;52.020;4.714;2023-08-06T07:47:41;5.63;;;1.77;;
22786;SDS011;63134;52.020;4.714;2023-08-06T07:50:28;4.47;;;1.98;;
22786;SDS011;63134;52.020;4.714;2023-08-06T07:53:13;5.78;;;2.08;;
22786;SDS011;63134;52.020;4.714;2023-08-06T07:55:59;3.42;;;1.75;;
22786;SDS011;63134;52.020;4.714;2023-08-06T07:58:47;3.80;;;1.92;;
22786;SDS011;63134;52.020;4.714;2023-08-06T08:01:32;3.92;;;2.35;;
22786;SDS011;63134;52.020;4.714;2023-08-06T08:04:18;3.17;;;1.75;;
22786;SDS011;63134;52.020;4.714;2023-08-06T08:07:07;5.53;;;1.92;;
22786;SDS011;63134;52.020;4.714;2023-08-06T08:09:52;4.20;;;1.98;;
22786;SDS011;63134;52.020;4.714;2023-08-06T08:12:37;3.40;;;1.75;;
22786;SDS011;63134;52.020;4.714;2023-08-06T08:15:23;6.65;;;2.00;;
22786;SDS011;63134;52.020;4.714;2023-08-06T08:18:12;3.08;;;1.63;;
22786;SDS011;63134;52.020;4.714;2023-08-06T08:20:58;3.58;;;1.83;;
22786;SDS011;63134;52.020;4.714;2023-08-06T08:23:43;2.83;;;2.00;;
22786;SDS011;63134;52.020;4.714;2023-08-06T08:26:29;4.53;;;1.92;;
22786;SDS011;63134;52.020;4.714;2023-08-06T08:29:15;3.30;;;1.90;;
22786;SDS011;63134;52.020;4.714;2023-08-06T08:32:01;3.28;;;1.80;;
22786;SDS011;63134;52.020;4.714;2023-08-06T08:34:46;5.47;;;2.35;;
22786;SDS011;63134;52.020;4.714;2023-08-06T08:37:35;3.13;;;1.58;;
22786;SDS011;63134;52.020;4.714;2023-08-06T08:40:21;3.50;;;1.67;;
22786;SDS011;63134;52.020;4.714;2023-08-06T08:43:10;3.13;;;1.90;;
22786;SDS011;63134;52.020;4.714;2023-08-06T08:45:56;1.85;;;1.60;;
22786;SDS011;63134;52.020;4.714;2023-08-06T08:48:44;4.25;;;1.80;;
22786;SDS011;63134;52.020;4.714;2023-08-06T08:51:30;3.40;;;1.63;;
22786;SDS011;63134;52.020;4.714;2023-08-06T08:54:16;3.38;;;1.90;;
22786;SDS011;63134;52.020;4.714;2023-08-06T08:57:02;5.95;;;1.70;;
22786;SDS011;63134;52.020;4.714;2023-08-06T08:59:48;5.03;;;1.90;;
22786;SDS011;63134;52.020;4.714;2023-08-06T09:02:34;5.20;;;2.28;;
22786;SDS011;63134;52.020;4.714;2023-08-06T09:05:23;3.60;;;2.28;;
22786;SDS011;63134;52.020;4.714;2023-08-06T09:08:15;4.60;;;1.85;;
22786;SDS011;63134;52.020;4.714;2023-08-06T09:11:04;5.63;;;2.15;;
22786;SDS011;63134;52.020;4.714;2023-08-06T09:13:50;2.65;;;1.63;;
22786;SDS011;63134;52.020;4.714;2023-08-06T09:16:36;3.03;;;1.58;;
22786;SDS011;63134;52.020;4.714;2023-08-06T09:19:22;2.70;;;1.83;;
22786;SDS011;63134;52.020;4.714;2023-08-06T09:22:07;3.67;;;1.70;;
22786;SDS011;63134;52.020;4.714;2023-08-06T09:24:58;3.53;;;2.10;;
22786;SDS011;63134;52.020;4.714;2023-08-06T09:27:45;3.67;;;1.92;;
22786;SDS011;63134;52.020;4.714;2023-08-06T09:30:33;2.53;;;2.00;;
22786;SDS011;63134;52.020;4.714;2023-08-06T09:33:22;6.60;;;2.20;;
22786;SDS011;63134;52.020;4.714;2023-08-06T09:36:08;5.75;;;2.28;;
22786;SDS011;63134;52.020;4.714;2023-08-06T09:38:54;3.85;;;2.65;;
22786;SDS011;63134;52.020;4.714;2023-08-06T09:41:40;2.55;;;2.03;;
22786;SDS011;63134;52.020;4.714;2023-08-06T09:44:27;3.40;;;2.08;;
22786;SDS011;63134;52.020;4.714;2023-08-06T09:47:17;2.55;;;1.70;;
22786;SDS011;63134;52.020;4.714;2023-08-06T09:50:05;3.03;;;1.60;;
22786;SDS011;63134;52.020;4.714;2023-08-06T09:52:52;2.92;;;1.92;;
22786;SDS011;63134;52.020;4.714;2023-08-06T09:55:38;2.08;;;1.55;;
22786;SDS011;63134;52.020;4.714;2023-08-06T09:58:24;4.15;;;1.83;;
22786;SDS011;63134;52.020;4.714;2023-08-06T10:01:11;3.60;;;1.60;;
22786;SDS011;63134;52.020;4.714;2023-08-06T10:03:57;1.77;;;1.40;;
22786;SDS011;63134;52.020;4.714;2023-08-06T10:06:46;3.28;;;1.85;;
22786;SDS011;63134;52.020;4.714;2023-08-06T10:09:33;3.65;;;1.70;;
22786;SDS011;63134;52.020;4.714;2023-08-06T10:12:18;2.47;;;1.58;;
22786;SDS011;63134;52.020;4.714;2023-08-06T10:15:06;2.63;;;1.63;;
22786;SDS011;63134;52.020;4.714;2023-08-06T10:17:56;1.95;;;1.65;;
22786;SDS011;63134;52.020;4.714;2023-08-06T10:20:50;2.97;;;1.55;;
22786;SDS011;63134;52.020;4.714;2023-08-06T10:23:36;1.40;;;1.30;;
22786;SDS011;63134;52.020;4.714;2023-08-06T10:26:26;1.65;;;1.10;;
22786;SDS011;63134;52.020;4.714;2023-08-06T10:32:19;2.15;;;1.70;;
22786;SDS011;63134;52.020;4.714;2023-08-06T10:35:12;3.67;;;1.67;;
22786;SDS011;63134;52.020;4.714;2023-08-06T10:38:24;3.72;;;1.60;;
22786;SDS011;63134;52.020;4.714;2023-08-06T10:44:06;3.65;;;1.40;;
22786;SDS011;63134;52.020;4.714;2023-08-06T10:46:54;1.30;;;1.17;;
22786;SDS011;63134;52.020;4.714;2023-08-06T10:49:40;1.98;;;1.17;;
22786;SDS011;63134;52.020;4.714;2023-08-06T10:52:26;2.35;;;1.30;;
22786;SDS011;63134;52.020;4.714;2023-08-06T10:55:11;3.03;;;1.67;;
22786;SDS011;63134;52.020;4.714;2023-08-06T10:58:06;2.45;;;1.23;;
22786;SDS011;63134;52.020;4.714;2023-08-06T11:00:52;3.28;;;1.27;;
22786;SDS011;63134;52.020;4.714;2023-08-06T11:03:38;2.40;;;1.27;;
22786;SDS011;63134;52.020;4.714;2023-08-06T11:06:24;1.85;;;1.27;;
22786;SDS011;63134;52.020;4.714;2023-08-06T11:09:10;3.03;;;1.00;;
22786;SDS011;63134;52.020;4.714;2023-08-06T11:11:56;2.90;;;1.10;;
22786;SDS011;63134;52.020;4.714;2023-08-06T11:14:42;1.92;;;1.30;;
22786;SDS011;63134;52.020;4.714;2023-08-06T11:17:28;3.42;;;1.00;;
22786;SDS011;63134;52.020;4.714;2023-08-06T11:20:15;3.47;;;1.35;;
22786;SDS011;63134;52.020;4.714;2023-08-06T11:23:02;2.47;;;1.27;;
22786;SDS011;63134;52.020;4.714;2023-08-06T11:25:48;2.78;;;1.08;;
22786;SDS011;63134;52.020;4.714;2023-08-06T11:28:34;2.92;;;1.52;;
22786;SDS011;63134;52.020;4.714;2023-08-06T11:31:25;1.25;;;1.15;;
22786;SDS011;63134;52.020;4.714;2023-08-06T11:34:10;3.60;;;1.85;;
22786;SDS011;63134;52.020;4.714;2023-08-06T11:36:59;3.95;;;1.35;;
22786;SDS011;63134;52.020;4.714;2023-08-06T11:39:48;1.60;;;1.05;;
22786;SDS011;63134;52.020;4.714;2023-08-06T11:42:35;1.98;;;1.35;;
22786;SDS011;63134;52.020;4.714;2023-08-06T11:45:22;2.88;;;1.30;;
22786;SDS011;63134;52.020;4.714;2023-08-06T11:48:09;2.20;;;1.30;;
22786;SDS011;63134;52.020;4.714;2023-08-06T11:50:55;3.72;;;1.50;;
22786;SDS011;63134;52.020;4.714;2023-08-06T11:53:42;1.25;;;0.90;;
22786;SDS011;63134;52.020;4.714;2023-08-06T11:56:34;1.52;;;1.00;;
22786;SDS011;63134;52.020;4.714;2023-08-06T11:59:22;3.20;;;1.20;;
22786;SDS011;63134;52.020;4.714;2023-08-06T12:02:10;2.13;;;1.15;;
22786;SDS011;63134;52.020;4.714;2023-08-06T12:05:00;2.15;;;1.02;;
22786;SDS011;63134;52.020;4.714;2023-08-06T12:07:51;1.85;;;0.85;;
22786;SDS011;63134;52.020;4.714;2023-08-06T12:10:40;1.73;;;0.90;;
22786;SDS011;63134;52.020;4.714;2023-08-06T12:13:26;4.72;;;1.10;;
22786;SDS011;63134;52.020;4.714;2023-08-06T12:16:11;2.15;;;0.90;;
22786;SDS011;63134;52.020;4.714;2023-08-06T12:18:58;2.50;;;0.82;;
22786;SDS011;63134;52.020;4.714;2023-08-06T12:21:43;1.70;;;0.80;;
22786;SDS011;63134;52.020;4.714;2023-08-06T12:24:29;1.48;;;0.95;;
22786;SDS011;63134;52.020;4.714;2023-08-06T12:27:16;1.20;;;0.73;;
22786;SDS011;63134;52.020;4.714;2023-08-06T12:30:02;5.35;;;1.10;;
22786;SDS011;63134;52.020;4.714;2023-08-06T12:32:49;2.53;;;1.00;;
22786;SDS011;63134;52.020;4.714;2023-08-06T12:35:36;2.55;;;1.13;;
22786;SDS011;63134;52.020;4.714;2023-08-06T12:38:23;1.70;;;0.88;;
22786;SDS011;63134;52.020;4.714;2023-08-06T12:41:10;3.28;;;0.82;;
22786;SDS011;63134;52.020;4.714;2023-08-06T12:43:55;0.77;;;0.77;;
22786;SDS011;63134;52.020;4.714;2023-08-06T12:46:41;1.90;;;0.95;;
22786;SDS011;63134;52.020;4.714;2023-08-06T12:49:26;0.95;;;0.75;;
22786;SDS011;63134;52.020;4.714;2023-08-06T12:52:12;2.25;;;1.15;;
22786;SDS011;63134;52.020;4.714;2023-08-06T12:55:00;1.40;;;0.60;;
22786;SDS011;63134;52.020;4.714;2023-08-06T12:57:45;3.03;;;1.00;;
22786;SDS011;63134;52.020;4.714;2023-08-06T13:00:42;3.40;;;0.82;;
22786;SDS011;63134;52.020;4.714;2023-08-06T13:03:28;3.55;;;0.98;;
22786;SDS011;63134;52.020;4.714;2023-08-06T13:06:17;1.58;;;0.98;;
22786;SDS011;63134;52.020;4.714;2023-08-06T13:09:03;1.67;;;0.70;;
22786;SDS011;63134;52.020;4.714;2023-08-06T13:11:49;1.65;;;0.80;;
22786;SDS011;63134;52.020;4.714;2023-08-06T13:14:35;1.80;;;0.70;;
22786;SDS011;63134;52.020;4.714;2023-08-06T13:17:20;2.85;;;0.90;;
22786;SDS011;63134;52.020;4.714;2023-08-06T13:20:06;3.15;;;0.90;;
22786;SDS011;63134;52.020;4.714;2023-08-06T13:22:52;3.58;;;0.90;;
22786;SDS011;63134;52.020;4.714;2023-08-06T13:25:39;1.25;;;0.77;;
22786;SDS011;63134;52.020;4.714;2023-08-06T13:28:25;1.70;;;1.10;;
22786;SDS011;63134;52.020;4.714;2023-08-06T13:31:11;2.88;;;1.33;;
22786;SDS011;63134;52.020;4.714;2023-08-06T13:33:56;2.80;;;1.13;;
22786;SDS011;63134;52.020;4.714;2023-08-06T13:36:45;2.90;;;1.00;;
22786;SDS011;63134;52.020;4.714;2023-08-06T13:39:31;4.28;;;1.20;;
22786;SDS011;63134;52.020;4.714;2023-08-06T13:42:16;1.20;;;1.10;;
22786;SDS011;63134;52.020;4.714;2023-08-06T13:45:02;1.88;;;0.90;;
22786;SDS011;63134;52.020;4.714;2023-08-06T13:47:55;1.95;;;0.95;;
22786;SDS011;63134;52.020;4.714;2023-08-06T13:50:40;1.52;;;0.90;;
22786;SDS011;63134;52.020;4.714;2023-08-06T13:53:25;1.92;;;1.00;;
22786;SDS011;63134;52.020;4.714;2023-08-06T13:56:14;2.55;;;1.13;;
22786;SDS011;63134;52.020;4.714;2023-08-06T13:59:02;2.47;;;1.05;;
22786;SDS011;63134;52.020;4.714;2023-08-06T14:01:54;6.93;;;1.27;;
22786;SDS011;63134;52.020;4.714;2023-08-06T14:04:42;4.80;;;1.70;;
22786;SDS011;63134;52.020;4.714;2023-08-06T14:07:28;6.78;;;1.52;;
22786;SDS011;63134;52.020;4.714;2023-08-06T14:10:14;6.47;;;1.60;;
22786;SDS011;63134;52.020;4.714;2023-08-06T14:12:59;5.10;;;1.35;;
22786;SDS011;63134;52.020;4.714;2023-08-06T14:15:54;8.57;;;1.70;;
22786;SDS011;63134;52.020;4.714;2023-08-06T14:18:40;4.28;;;1.52;;
22786;SDS011;63134;52.020;4.714;2023-08-06T14:21:26;7.28;;;1.33;;
22786;SDS011;63134;52.020;4.714;2023-08-06T14:24:11;12.00;;;2.15;;
22786;SDS011;63134;52.020;4.714;2023-08-06T14:26:57;5.45;;;1.48;;
22786;SDS011;63134;52.020;4.714;2023-08-06T14:29:43;5.30;;;1.63;;
22786;SDS011;63134;52.020;4.714;2023-08-06T14:32:28;6.47;;;1.83;;
22786;SDS011;63134;52.020;4.714;2023-08-06T14:35:14;6.95;;;1.45;;
22786;SDS011;63134;52.020;4.714;2023-08-06T14:37:59;8.98;;;1.73;;
22786;SDS011;63134;52.020;4.714;2023-08-06T14:40:48;7.18;;;1.75;;
22786;SDS011;63134;52.020;4.714;2023-08-06T14:43:33;4.85;;;1.40;;
22786;SDS011;63134;52.020;4.714;2023-08-06T14:46:19;3.78;;;1.50;;
22786;SDS011;63134;52.020;4.714;2023-08-06T14:49:05;5.93;;;1.63;;
22786;SDS011;63134;52.020;4.714;2023-08-06T14:51:50;4.97;;;1.73;;
22786;SDS011;63134;52.020;4.714;2023-08-06T14:54:35;5.57;;;1.90;;
22786;SDS011;63134;52.020;4.714;2023-08-06T14:57:23;8.57;;;2.00;;
22786;SDS011;63134;52.020;4.714;2023-08-06T15:00:12;6.30;;;1.52;;
22786;SDS011;63134;52.020;4.714;2023-08-06T15:02:58;6.88;;;1.90;;
22786;SDS011;63134;52.020;4.714;2023-08-06T15:05:46;6.65;;;1.95;;
22786;SDS011;63134;52.020;4.714;2023-08-06T15:08:32;8.25;;;1.98;;
22786;SDS011;63134;52.020;4.714;2023-08-06T15:11:17;4.10;;;1.60;;
22786;SDS011;63134;52.020;4.714;2023-08-06T15:14:03;11.77;;;2.70;;
22786;SDS011;63134;52.020;4.714;2023-08-06T15:16:54;10.82;;;2.38;;
22786;SDS011;63134;52.020;4.714;2023-08-06T15:19:42;7.45;;;2.00;;
22786;SDS011;63134;52.020;4.714;2023-08-06T15:22:28;9.18;;;2.10;;
22786;SDS011;63134;52.020;4.714;2023-08-06T15:25:16;9.05;;;2.20;;
22786;SDS011;63134;52.020;4.714;2023-08-06T15:28:02;8.05;;;2.03;;
22786;SDS011;63134;52.020;4.714;2023-08-06T15:30:48;9.35;;;2.10;;
22786;SDS011;63134;52.020;4.714;2023-08-06T15:33:35;17.88;;;2.92;;
22786;SDS011;63134;52.020;4.714;2023-08-06T15:36:21;10.90;;;2.40;;
22786;SDS011;63134;52.020;4.714;2023-08-06T15:39:06;7.35;;;2.83;;
22786;SDS011;63134;52.020;4.714;2023-08-06T15:41:52;9.48;;;2.60;;
22786;SDS011;63134;52.020;4.714;2023-08-06T15:44:40;10.50;;;2.55;;
22786;SDS011;63134;52.020;4.714;2023-08-06T15:47:25;10.48;;;2.55;;
22786;SDS011;63134;52.020;4.714;2023-08-06T15:50:11;15.23;;;3.65;;
22786;SDS011;63134;52.020;4.714;2023-08-06T15:52:56;9.80;;;2.67;;
22786;SDS011;63134;52.020;4.714;2023-08-06T15:55:42;13.63;;;2.85;;
22786;SDS011;63134;52.020;4.714;2023-08-06T15:58:28;9.40;;;3.03;;
22786;SDS011;63134;52.020;4.714;2023-08-06T16:01:13;14.93;;;3.40;;
22786;SDS011;63134;52.020;4.714;2023-08-06T16:03:59;20.15;;;4.20;;
22786;SDS011;63134;52.020;4.714;2023-08-06T16:06:45;12.77;;;3.53;;
22786;SDS011;63134;52.020;4.714;2023-08-06T16:09:30;10.82;;;3.13;;
22786;SDS011;63134;52.020;4.714;2023-08-06T16:12:17;12.63;;;3.30;;
22786;SDS011;63134;52.020;4.714;2023-08-06T16:15:04;13.52;;;2.83;;
22786;SDS011;63134;52.020;4.714;2023-08-06T16:17:50;10.05;;;2.63;;
22786;SDS011;63134;52.020;4.714;2023-08-06T16:20:40;12.35;;;2.75;;
22786;SDS011;63134;52.020;4.714;2023-08-06T16:23:29;11.40;;;2.63;;
22786;SDS011;63134;52.020;4.714;2023-08-06T16:26:15;12.60;;;3.10;;
22786;SDS011;63134;52.020;4.714;2023-08-06T16:29:00;8.30;;;2.10;;
22786;SDS011;63134;52.020;4.714;2023-08-06T16:31:48;6.07;;;1.60;;
22786;SDS011;63134;52.020;4.714;2023-08-06T16:34:34;6.53;;;2.30;;
22786;SDS011;63134;52.020;4.714;2023-08-06T16:37:19;12.52;;;2.10;;
22786;SDS011;63134;52.020;4.714;2023-08-06T16:40:05;10.25;;;2.28;;
22786;SDS011;63134;52.020;4.714;2023-08-06T16:42:52;13.95;;;2.35;;
22786;SDS011;63134;52.020;4.714;2023-08-06T16:45:37;7.13;;;2.10;;
22786;SDS011;63134;52.020;4.714;2023-08-06T16:48:23;11.88;;;2.83;;
22786;SDS011;63134;52.020;4.714;2023-08-06T16:51:12;13.00;;;2.42;;
22786;SDS011;63134;52.020;4.714;2023-08-06T16:54:00;13.25;;;2.75;;